sensor_id;sensor_type;location;lat;lon;timestamp;P1;durP1;ratioP1;P2;durP2;ratioP2
10596;SDS011;5346;48.766;8.674;2022-12-28T00:01:14;27.70;;;3.23;;
10596;SDS011;5346;48.766;8.674;2022-12-28T00:03:44;6.27;;;3.23;;
10596;SDS011;5346;48.766;8.674;2022-12-28T00:06:19;8.40;;;1.97;;
10596;SDS011;5346;48.766;8.674;2022-12-28T00:08:48;5.10;;;1.70;;
10596;SDS011;5346;48.766;8.674;2022-12-28T00:11:18;7.03;;;1.60;;
10596;SDS011;5346;48.766;8.674;2022-12-28T00:14:00;2.43;;;1.40;;
10596;SDS011;5346;48.766;8.674;2022-12-28T00:16:28;1.67;;;1.27;;
10596;SDS011;5346;48.766;8.674;2022-12-28T00:19:05;4.57;;;1.53;;
10596;SDS011;5346;48.766;8.674;2022-12-28T00:21:38;2.77;;;1.20;;
10596;SDS011;5346;48.766;8.674;2022-12-28T00:24:19;2.47;;;1.23;;
10596;SDS011;5346;48.766;8.674;2022-12-28T00:26:51;2.90;;;0.90;;
10596;SDS011;5346;48.766;8.674;2022-12-28T00:29:25;2.17;;;1.30;;
10596;SDS011;5346;48.766;8.674;2022-12-28T00:31:53;1.60;;;1.00;;
10596;SDS011;5346;48.766;8.674;2022-12-28T00:34:20;1.37;;;0.90;;
10596;SDS011;5346;48.766;8.674;2022-12-28T00:36:54;3.37;;;1.20;;
10596;SDS011;5346;48.766;8.674;2022-12-28T00:39:44;1.30;;;0.90;;
10596;SDS011;5346;48.766;8.674;2022-12-28T00:42:19;2.23;;;1.30;;
10596;SDS011;5346;48.766;8.674;2022-12-28T00:44:46;1.80;;;1.20;;
10596;SDS011;5346;48.766;8.674;2022-12-28T00:47:14;2.40;;;1.43;;
10596;SDS011;5346;48.766;8.674;2022-12-28T00:49:47;5.50;;;1.23;;
10596;SDS011;5346;48.766;8.674;2022-12-28T00:52:14;7.93;;;1.30;;
10596;SDS011;5346;48.766;8.674;2022-12-28T00:54:42;3.50;;;1.33;;
10596;SDS011;5346;48.766;8.674;2022-12-28T00:57:16;1.83;;;1.50;;
10596;SDS011;5346;48.766;8.674;2022-12-28T00:59:43;2.57;;;1.50;;
10596;SDS011;5346;48.766;8.674;2022-12-28T01:02:11;5.53;;;1.47;;
10596;SDS011;5346;48.766;8.674;2022-12-28T01:04:45;4.53;;;1.43;;
10596;SDS011;5346;48.766;8.674;2022-12-28T01:07:12;1.97;;;1.57;;
10596;SDS011;5346;48.766;8.674;2022-12-28T01:09:40;2.03;;;1.50;;
10596;SDS011;5346;48.766;8.674;2022-12-28T01:12:14;2.33;;;1.50;;
10596;SDS011;5346;48.766;8.674;2022-12-28T01:14:42;3.83;;;1.90;;
10596;SDS011;5346;48.766;8.674;2022-12-28T01:17:09;2.73;;;1.77;;
10596;SDS011;5346;48.766;8.674;2022-12-28T01:19:43;4.27;;;2.10;;
10596;SDS011;5346;48.766;8.674;2022-12-28T01:22:19;3.43;;;1.70;;
10596;SDS011;5346;48.766;8.674;2022-12-28T01:24:53;2.90;;;2.30;;
10596;SDS011;5346;48.766;8.674;2022-12-28T01:27:20;3.83;;;1.77;;
10596;SDS011;5346;48.766;8.674;2022-12-28T01:29:47;5.60;;;1.70;;
10596;SDS011;5346;48.766;8.674;2022-12-28T01:32:22;6.03;;;1.90;;
10596;SDS011;5346;48.766;8.674;2022-12-28T01:34:49;2.03;;;1.70;;
10596;SDS011;5346;48.766;8.674;2022-12-28T01:37:16;4.53;;;1.60;;
10596;SDS011;5346;48.766;8.674;2022-12-28T01:39:54;5.33;;;1.70;;
10596;SDS011;5346;48.766;8.674;2022-12-28T01:42:30;3.53;;;1.40;;
10596;SDS011;5346;48.766;8.674;2022-12-28T01:45:12;2.07;;;1.10;;
10596;SDS011;5346;48.766;8.674;2022-12-28T01:47:44;1.43;;;0.83;;
10596;SDS011;5346;48.766;8.674;2022-12-28T01:50:20;1.13;;;1.03;;
10596;SDS011;5346;48.766;8.674;2022-12-28T01:52:54;0.77;;;0.57;;
10596;SDS011;5346;48.766;8.674;2022-12-28T01:55:31;0.73;;;0.73;;
10596;SDS011;5346;48.766;8.674;2022-12-28T01:58:06;6.67;;;0.80;;
10596;SDS011;5346;48.766;8.674;2022-12-28T02:00:52;1.30;;;0.80;;
10596;SDS011;5346;48.766;8.674;2022-12-28T02:03:21;1.20;;;0.90;;
10596;SDS011;5346;48.766;8.674;2022-12-28T02:05:53;1.53;;;1.43;;
10596;SDS011;5346;48.766;8.674;2022-12-28T02:08:43;2.23;;;0.93;;
10596;SDS011;5346;48.766;8.674;2022-12-28T02:11:23;2.00;;;0.80;;
10596;SDS011;5346;48.766;8.674;2022-12-28T02:14:05;1.80;;;0.80;;
10596;SDS011;5346;48.766;8.674;2022-12-28T02:16:34;4.47;;;0.90;;
10596;SDS011;5346;48.766;8.674;2022-12-28T02:19:11;3.37;;;0.90;;
10596;SDS011;5346;48.766;8.674;2022-12-28T02:22:05;1.37;;;0.47;;
10596;SDS011;5346;48.766;8.674;2022-12-28T02:30:46;3.30;;;0.60;;
10596;SDS011;5346;48.766;8.674;2022-12-28T02:33:26;0.73;;;0.40;;
10596;SDS011;5346;48.766;8.674;2022-12-28T02:36:23;1.07;;;0.50;;
10596;SDS011;5346;48.766;8.674;2022-12-28T02:39:31;1.20;;;0.70;;
10596;SDS011;5346;48.766;8.674;2022-12-28T02:42:10;0.63;;;0.63;;
10596;SDS011;5346;48.766;8.674;2022-12-28T02:44:39;2.33;;;0.80;;
10596;SDS011;5346;48.766;8.674;2022-12-28T02:47:32;1.50;;;0.73;;
10596;SDS011;5346;48.766;8.674;2022-12-28T02:50:18;0.70;;;0.40;;
10596;SDS011;5346;48.766;8.674;2022-12-28T02:55:34;1.23;;;0.50;;
10596;SDS011;5346;48.766;8.674;2022-12-28T02:58:56;0.50;;;0.40;;
10596;SDS011;5346;48.766;8.674;2022-12-28T03:01:43;1.23;;;0.70;;
10596;SDS011;5346;48.766;8.674;2022-12-28T03:07:09;1.13;;;0.50;;
10596;SDS011;5346;48.766;8.674;2022-12-28T03:10:10;0.23;;;0.23;;
10596;SDS011;5346;48.766;8.674;2022-12-28T03:15:35;1.90;;;0.70;;
10596;SDS011;5346;48.766;8.674;2022-12-28T03:18:05;1.40;;;0.50;;
10596;SDS011;5346;48.766;8.674;2022-12-28T03:21:04;1.20;;;0.67;;
10596;SDS011;5346;48.766;8.674;2022-12-28T03:23:53;2.40;;;0.67;;
10596;SDS011;5346;48.766;8.674;2022-12-28T03:26:48;1.07;;;0.50;;
10596;SDS011;5346;48.766;8.674;2022-12-28T03:29:39;0.93;;;0.50;;
10596;SDS011;5346;48.766;8.674;2022-12-28T03:32:36;1.00;;;0.50;;
10596;SDS011;5346;48.766;8.674;2022-12-28T03:35:04;0.93;;;0.60;;
10596;SDS011;5346;48.766;8.674;2022-12-28T03:37:40;1.43;;;0.63;;
10596;SDS011;5346;48.766;8.674;2022-12-28T03:43:10;1.37;;;0.70;;
10596;SDS011;5346;48.766;8.674;2022-12-28T03:46:27;1.73;;;0.50;;
10596;SDS011;5346;48.766;8.674;2022-12-28T03:49:01;0.67;;;0.37;;
10596;SDS011;5346;48.766;8.674;2022-12-28T03:51:35;0.93;;;0.70;;
10596;SDS011;5346;48.766;8.674;2022-12-28T03:54:04;1.10;;;0.80;;
10596;SDS011;5346;48.766;8.674;2022-12-28T03:56:46;1.17;;;0.70;;
10596;SDS011;5346;48.766;8.674;2022-12-28T03:59:15;2.97;;;0.80;;
10596;SDS011;5346;48.766;8.674;2022-12-28T04:01:43;0.83;;;0.70;;
10596;SDS011;5346;48.766;8.674;2022-12-28T04:04:18;1.63;;;0.60;;
10596;SDS011;5346;48.766;8.674;2022-12-28T04:06:45;1.70;;;0.57;;
10596;SDS011;5346;48.766;8.674;2022-12-28T04:09:13;3.40;;;1.07;;
10596;SDS011;5346;48.766;8.674;2022-12-28T04:11:47;0.90;;;0.60;;
10596;SDS011;5346;48.766;8.674;2022-12-28T04:14:14;1.10;;;0.67;;
10596;SDS011;5346;48.766;8.674;2022-12-28T04:16:42;2.10;;;0.77;;
10596;SDS011;5346;48.766;8.674;2022-12-28T04:19:16;0.57;;;0.57;;
10596;SDS011;5346;48.766;8.674;2022-12-28T04:21:44;2.30;;;0.53;;
10596;SDS011;5346;48.766;8.674;2022-12-28T04:24:11;0.50;;;0.50;;
10596;SDS011;5346;48.766;8.674;2022-12-28T04:26:47;0.83;;;0.70;;
10596;SDS011;5346;48.766;8.674;2022-12-28T04:29:18;1.50;;;0.50;;
10596;SDS011;5346;48.766;8.674;2022-12-28T04:31:45;1.70;;;0.83;;
10596;SDS011;5346;48.766;8.674;2022-12-28T04:34:19;3.27;;;0.80;;
10596;SDS011;5346;48.766;8.674;2022-12-28T04:36:47;5.73;;;0.90;;
10596;SDS011;5346;48.766;8.674;2022-12-28T04:39:36;1.37;;;0.70;;
10596;SDS011;5346;48.766;8.674;2022-12-28T04:42:28;0.70;;;0.70;;
10596;SDS011;5346;48.766;8.674;2022-12-28T04:45:04;3.87;;;0.70;;
10596;SDS011;5346;48.766;8.674;2022-12-28T04:47:32;1.33;;;0.80;;
10596;SDS011;5346;48.766;8.674;2022-12-28T04:50:02;1.47;;;0.73;;
10596;SDS011;5346;48.766;8.674;2022-12-28T04:52:36;1.33;;;0.80;;
10596;SDS011;5346;48.766;8.674;2022-12-28T04:55:03;2.10;;;0.80;;
10596;SDS011;5346;48.766;8.674;2022-12-28T04:57:31;2.07;;;0.70;;
10596;SDS011;5346;48.766;8.674;2022-12-28T05:00:05;2.07;;;0.70;;
10596;SDS011;5346;48.766;8.674;2022-12-28T05:02:33;3.97;;;0.90;;
10596;SDS011;5346;48.766;8.674;2022-12-28T05:05:00;2.13;;;0.80;;
10596;SDS011;5346;48.766;8.674;2022-12-28T05:07:37;3.03;;;0.60;;
10596;SDS011;5346;48.766;8.674;2022-12-28T05:10:06;1.50;;;0.60;;
10596;SDS011;5346;48.766;8.674;2022-12-28T05:12:34;0.93;;;0.63;;
10596;SDS011;5346;48.766;8.674;2022-12-28T05:15:10;4.50;;;0.83;;
10596;SDS011;5346;48.766;8.674;2022-12-28T05:17:37;1.37;;;0.53;;
10596;SDS011;5346;48.766;8.674;2022-12-28T05:20:05;2.00;;;0.93;;
10596;SDS011;5346;48.766;8.674;2022-12-28T05:22:38;4.00;;;1.20;;
10596;SDS011;5346;48.766;8.674;2022-12-28T05:25:10;1.27;;;0.60;;
10596;SDS011;5346;48.766;8.674;2022-12-28T05:27:49;4.37;;;0.80;;
10596;SDS011;5346;48.766;8.674;2022-12-28T05:30:17;3.17;;;1.10;;
10596;SDS011;5346;48.766;8.674;2022-12-28T05:32:44;0.77;;;0.50;;
10596;SDS011;5346;48.766;8.674;2022-12-28T05:35:18;0.63;;;0.60;;
10596;SDS011;5346;48.766;8.674;2022-12-28T05:37:46;1.20;;;0.67;;
10596;SDS011;5346;48.766;8.674;2022-12-28T05:40:26;0.60;;;0.60;;
10596;SDS011;5346;48.766;8.674;2022-12-28T05:42:54;2.50;;;0.90;;
10596;SDS011;5346;48.766;8.674;2022-12-28T05:45:22;0.73;;;0.67;;
10596;SDS011;5346;48.766;8.674;2022-12-28T05:47:56;1.83;;;0.63;;
10596;SDS011;5346;48.766;8.674;2022-12-28T05:50:23;1.63;;;0.80;;
10596;SDS011;5346;48.766;8.674;2022-12-28T05:52:50;2.13;;;0.80;;
10596;SDS011;5346;48.766;8.674;2022-12-28T05:55:24;2.23;;;0.80;;
10596;SDS011;5346;48.766;8.674;2022-12-28T05:57:55;1.50;;;0.77;;
10596;SDS011;5346;48.766;8.674;2022-12-28T06:00:22;2.43;;;0.90;;
10596;SDS011;5346;48.766;8.674;2022-12-28T06:02:56;2.13;;;1.00;;
10596;SDS011;5346;48.766;8.674;2022-12-28T06:05:26;4.80;;;0.93;;
10596;SDS011;5346;48.766;8.674;2022-12-28T06:07:55;2.53;;;0.83;;
10596;SDS011;5346;48.766;8.674;2022-12-28T06:10:30;2.30;;;0.70;;
10596;SDS011;5346;48.766;8.674;2022-12-28T06:12:57;1.43;;;0.57;;
10596;SDS011;5346;48.766;8.674;2022-12-28T06:15:24;6.63;;;1.00;;
10596;SDS011;5346;48.766;8.674;2022-12-28T06:17:58;0.87;;;0.63;;
10596;SDS011;5346;48.766;8.674;2022-12-28T06:20:30;2.40;;;0.60;;
10596;SDS011;5346;48.766;8.674;2022-12-28T06:22:57;0.87;;;0.70;;
10596;SDS011;5346;48.766;8.674;2022-12-28T06:25:31;2.97;;;0.80;;
10596;SDS011;5346;48.766;8.674;2022-12-28T06:27:58;2.67;;;1.07;;
10596;SDS011;5346;48.766;8.674;2022-12-28T06:30:26;1.40;;;0.70;;
10596;SDS011;5346;48.766;8.674;2022-12-28T06:33:02;1.13;;;0.50;;
10596;SDS011;5346;48.766;8.674;2022-12-28T06:35:33;1.70;;;0.90;;
10596;SDS011;5346;48.766;8.674;2022-12-28T06:38:19;3.73;;;0.97;;
10596;SDS011;5346;48.766;8.674;2022-12-28T06:41:03;0.90;;;0.70;;
10596;SDS011;5346;48.766;8.674;2022-12-28T06:43:40;2.67;;;0.77;;
10596;SDS011;5346;48.766;8.674;2022-12-28T06:46:11;3.57;;;0.80;;
10596;SDS011;5346;48.766;8.674;2022-12-28T06:48:45;0.80;;;0.67;;
10596;SDS011;5346;48.766;8.674;2022-12-28T06:51:14;2.37;;;0.93;;
10596;SDS011;5346;48.766;8.674;2022-12-28T06:53:53;2.03;;;1.13;;
10596;SDS011;5346;48.766;8.674;2022-12-28T06:56:22;3.40;;;0.70;;
10596;SDS011;5346;48.766;8.674;2022-12-28T06:59:01;2.77;;;0.97;;
10596;SDS011;5346;48.766;8.674;2022-12-28T07:01:33;2.20;;;0.80;;
10596;SDS011;5346;48.766;8.674;2022-12-28T07:04:03;5.40;;;0.90;;
10596;SDS011;5346;48.766;8.674;2022-12-28T07:06:39;2.20;;;0.70;;
10596;SDS011;5346;48.766;8.674;2022-12-28T07:09:11;1.83;;;0.70;;
10596;SDS011;5346;48.766;8.674;2022-12-28T07:11:50;4.30;;;0.87;;
10596;SDS011;5346;48.766;8.674;2022-12-28T07:14:18;1.87;;;0.77;;
10596;SDS011;5346;48.766;8.674;2022-12-28T07:16:47;2.17;;;0.63;;
10596;SDS011;5346;48.766;8.674;2022-12-28T07:19:21;2.30;;;1.10;;
10596;SDS011;5346;48.766;8.674;2022-12-28T07:21:49;0.70;;;0.50;;
10596;SDS011;5346;48.766;8.674;2022-12-28T07:24:16;1.63;;;0.70;;
10596;SDS011;5346;48.766;8.674;2022-12-28T07:26:50;2.63;;;0.90;;
10596;SDS011;5346;48.766;8.674;2022-12-28T07:29:17;1.33;;;0.57;;
10596;SDS011;5346;48.766;8.674;2022-12-28T07:31:45;1.27;;;0.70;;
10596;SDS011;5346;48.766;8.674;2022-12-28T07:34:19;1.30;;;0.57;;
10596;SDS011;5346;48.766;8.674;2022-12-28T07:36:53;1.03;;;0.53;;
10596;SDS011;5346;48.766;8.674;2022-12-28T07:39:34;4.43;;;0.43;;
10596;SDS011;5346;48.766;8.674;2022-12-28T07:42:01;3.80;;;0.50;;
10596;SDS011;5346;48.766;8.674;2022-12-28T07:44:32;1.23;;;0.70;;
10596;SDS011;5346;48.766;8.674;2022-12-28T07:47:14;1.80;;;0.50;;
10596;SDS011;5346;48.766;8.674;2022-12-28T07:49:42;1.57;;;0.63;;
10596;SDS011;5346;48.766;8.674;2022-12-28T07:52:16;4.77;;;0.80;;
10596;SDS011;5346;48.766;8.674;2022-12-28T07:54:46;3.63;;;0.80;;
10596;SDS011;5346;48.766;8.674;2022-12-28T07:57:14;0.60;;;0.60;;
10596;SDS011;5346;48.766;8.674;2022-12-28T07:59:48;4.20;;;0.63;;
10596;SDS011;5346;48.766;8.674;2022-12-28T08:02:15;0.97;;;0.60;;
10596;SDS011;5346;48.766;8.674;2022-12-28T08:04:46;2.17;;;0.57;;
10596;SDS011;5346;48.766;8.674;2022-12-28T08:07:20;1.10;;;0.53;;
10596;SDS011;5346;48.766;8.674;2022-12-28T08:09:47;1.70;;;0.57;;
10596;SDS011;5346;48.766;8.674;2022-12-28T08:12:15;0.93;;;0.50;;
10596;SDS011;5346;48.766;8.674;2022-12-28T08:14:49;0.40;;;0.40;;
10596;SDS011;5346;48.766;8.674;2022-12-28T08:17:17;0.83;;;0.47;;
10596;SDS011;5346;48.766;8.674;2022-12-28T08:19:46;1.47;;;0.60;;
10596;SDS011;5346;48.766;8.674;2022-12-28T08:22:22;2.40;;;0.80;;
10596;SDS011;5346;48.766;8.674;2022-12-28T08:24:50;1.10;;;0.77;;
10596;SDS011;5346;48.766;8.674;2022-12-28T08:27:17;1.63;;;0.50;;
10596;SDS011;5346;48.766;8.674;2022-12-28T08:29:51;1.43;;;0.57;;
10596;SDS011;5346;48.766;8.674;2022-12-28T08:32:18;2.97;;;0.97;;
10596;SDS011;5346;48.766;8.674;2022-12-28T08:34:46;3.07;;;0.53;;
10596;SDS011;5346;48.766;8.674;2022-12-28T08:37:27;0.30;;;0.30;;
10596;SDS011;5346;48.766;8.674;2022-12-28T08:40:07;3.30;;;0.70;;
10596;SDS011;5346;48.766;8.674;2022-12-28T08:42:42;1.13;;;0.57;;
10596;SDS011;5346;48.766;8.674;2022-12-28T08:45:09;1.57;;;0.40;;
10596;SDS011;5346;48.766;8.674;2022-12-28T08:47:37;1.13;;;0.60;;
10596;SDS011;5346;48.766;8.674;2022-12-28T08:50:11;0.60;;;0.50;;
10596;SDS011;5346;48.766;8.674;2022-12-28T08:52:45;2.60;;;0.83;;
10596;SDS011;5346;48.766;8.674;2022-12-28T08:55:21;1.13;;;0.40;;
10596;SDS011;5346;48.766;8.674;2022-12-28T08:57:48;0.87;;;0.60;;
10596;SDS011;5346;48.766;8.674;2022-12-28T09:00:29;1.50;;;0.50;;
10596;SDS011;5346;48.766;8.674;2022-12-28T09:02:58;1.70;;;0.70;;
10596;SDS011;5346;48.766;8.674;2022-12-28T09:05:26;1.03;;;0.60;;
10596;SDS011;5346;48.766;8.674;2022-12-28T09:08:05;1.70;;;0.60;;
10596;SDS011;5346;48.766;8.674;2022-12-28T09:10:32;1.37;;;0.80;;
10596;SDS011;5346;48.766;8.674;2022-12-28T09:12:59;0.77;;;0.50;;
10596;SDS011;5346;48.766;8.674;2022-12-28T09:15:33;1.10;;;0.50;;
10596;SDS011;5346;48.766;8.674;2022-12-28T09:18:09;1.77;;;0.73;;
10596;SDS011;5346;48.766;8.674;2022-12-28T09:20:47;0.77;;;0.60;;
10596;SDS011;5346;48.766;8.674;2022-12-28T09:23:16;0.77;;;0.40;;
10596;SDS011;5346;48.766;8.674;2022-12-28T09:25:44;2.60;;;0.50;;
10596;SDS011;5346;48.766;8.674;2022-12-28T09:28:21;2.20;;;0.97;;
10596;SDS011;5346;48.766;8.674;2022-12-28T09:30:50;0.77;;;0.63;;
10596;SDS011;5346;48.766;8.674;2022-12-28T09:33:18;1.90;;;0.70;;
10596;SDS011;5346;48.766;8.674;2022-12-28T09:36:34;0.87;;;0.80;;
10596;SDS011;5346;48.766;8.674;2022-12-28T09:39:07;1.07;;;0.83;;
10596;SDS011;5346;48.766;8.674;2022-12-28T09:42:05;3.13;;;0.70;;
10596;SDS011;5346;48.766;8.674;2022-12-28T09:44:53;0.93;;;0.43;;
10596;SDS011;5346;48.766;8.674;2022-12-28T09:47:43;1.53;;;0.50;;
10596;SDS011;5346;48.766;8.674;2022-12-28T09:55:50;0.97;;;0.40;;
10596;SDS011;5346;48.766;8.674;2022-12-28T09:58:29;0.87;;;0.50;;
10596;SDS011;5346;48.766;8.674;2022-12-28T10:00:59;1.73;;;0.70;;
10596;SDS011;5346;48.766;8.674;2022-12-28T10:03:37;1.13;;;0.43;;
10596;SDS011;5346;48.766;8.674;2022-12-28T10:06:13;1.23;;;0.47;;
10596;SDS011;5346;48.766;8.674;2022-12-28T10:08:52;2.07;;;0.67;;
10596;SDS011;5346;48.766;8.674;2022-12-28T10:11:29;1.27;;;0.60;;
10596;SDS011;5346;48.766;8.674;2022-12-28T10:14:32;1.53;;;0.70;;
10596;SDS011;5346;48.766;8.674;2022-12-28T10:17:01;1.70;;;1.00;;
10596;SDS011;5346;48.766;8.674;2022-12-28T10:19:39;1.53;;;0.50;;
10596;SDS011;5346;48.766;8.674;2022-12-28T10:22:13;1.17;;;0.67;;
10596;SDS011;5346;48.766;8.674;2022-12-28T10:24:51;1.75;;;0.40;;
10596;SDS011;5346;48.766;8.674;2022-12-28T10:27:23;2.65;;;0.52;;
10596;SDS011;5346;48.766;8.674;2022-12-28T10:30:06;3.05;;;0.70;;
10596;SDS011;5346;48.766;8.674;2022-12-28T10:32:51;1.17;;;0.60;;
10596;SDS011;5346;48.766;8.674;2022-12-28T10:35:32;1.35;;;0.50;;
10596;SDS011;5346;48.766;8.674;2022-12-28T10:41:06;1.88;;;0.70;;
10596;SDS011;5346;48.766;8.674;2022-12-28T10:43:44;2.58;;;0.60;;
10596;SDS011;5346;48.766;8.674;2022-12-28T10:46:48;2.15;;;0.50;;
10596;SDS011;5346;48.766;8.674;2022-12-28T10:49:19;2.53;;;0.60;;
10596;SDS011;5346;48.766;8.674;2022-12-28T10:52:06;1.90;;;0.50;;
10596;SDS011;5346;48.766;8.674;2022-12-28T10:54:40;1.50;;;0.67;;
10596;SDS011;5346;48.766;8.674;2022-12-28T10:57:33;2.93;;;0.57;;
10596;SDS011;5346;48.766;8.674;2022-12-28T11:00:21;1.23;;;0.50;;
10596;SDS011;5346;48.766;8.674;2022-12-28T11:02:58;1.83;;;1.07;;
10596;SDS011;5346;48.766;8.674;2022-12-28T11:05:25;1.37;;;0.70;;
10596;SDS011;5346;48.766;8.674;2022-12-28T11:08:04;2.67;;;1.47;;
10596;SDS011;5346;48.766;8.674;2022-12-28T11:10:38;3.67;;;1.90;;
10596;SDS011;5346;48.766;8.674;2022-12-28T11:13:09;2.83;;;1.40;;
10596;SDS011;5346;48.766;8.674;2022-12-28T11:15:51;3.33;;;1.70;;
10596;SDS011;5346;48.766;8.674;2022-12-28T11:18:19;3.40;;;1.57;;
10596;SDS011;5346;48.766;8.674;2022-12-28T11:20:47;3.17;;;1.83;;
10596;SDS011;5346;48.766;8.674;2022-12-28T11:23:24;3.37;;;1.47;;
10596;SDS011;5346;48.766;8.674;2022-12-28T11:25:57;1.53;;;1.43;;
10596;SDS011;5346;48.766;8.674;2022-12-28T11:28:32;2.83;;;1.50;;
10596;SDS011;5346;48.766;8.674;2022-12-28T11:31:01;1.42;;;1.30;;
10596;SDS011;5346;48.766;8.674;2022-12-28T11:33:41;1.98;;;1.30;;
10596;SDS011;5346;48.766;8.674;2022-12-28T11:36:21;2.60;;;1.45;;
10596;SDS011;5346;48.766;8.674;2022-12-28T11:38:57;1.52;;;1.27;;
10596;SDS011;5346;48.766;8.674;2022-12-28T11:41:55;1.90;;;1.55;;
10596;SDS011;5346;48.766;8.674;2022-12-28T11:47:23;2.95;;;1.23;;
10596;SDS011;5346;48.766;8.674;2022-12-28T11:53:20;2.55;;;1.42;;
10596;SDS011;5346;48.766;8.674;2022-12-28T11:56:08;4.72;;;1.40;;
10596;SDS011;5346;48.766;8.674;2022-12-28T11:58:59;3.17;;;1.55;;
10596;SDS011;5346;48.766;8.674;2022-12-28T12:17:39;3.40;;;1.40;;
10596;SDS011;5346;48.766;8.674;2022-12-28T12:20:32;3.72;;;1.63;;
10596;SDS011;5346;48.766;8.674;2022-12-28T12:23:20;3.72;;;1.70;;
10596;SDS011;5346;48.766;8.674;2022-12-28T12:26:27;4.05;;;1.60;;
10596;SDS011;5346;48.766;8.674;2022-12-28T12:29:21;1.80;;;1.67;;
10596;SDS011;5346;48.766;8.674;2022-12-28T12:34:52;2.33;;;1.75;;
10596;SDS011;5346;48.766;8.674;2022-12-28T12:43:23;2.05;;;1.42;;
10596;SDS011;5346;48.766;8.674;2022-12-28T13:05:05;2.93;;;2.10;;
10596;SDS011;5346;48.766;8.674;2022-12-28T13:07:39;3.60;;;2.10;;
10596;SDS011;5346;48.766;8.674;2022-12-28T13:10:56;3.23;;;2.10;;
10596;SDS011;5346;48.766;8.674;2022-12-28T13:13:12;4.17;;;2.70;;
10596;SDS011;5346;48.766;8.674;2022-12-28T13:15:56;3.70;;;2.50;;
10596;SDS011;5346;48.766;8.674;2022-12-28T13:18:51;3.70;;;2.50;;
10596;SDS011;5346;48.766;8.674;2022-12-28T13:21:49;8.77;;;2.70;;
10596;SDS011;5346;48.766;8.674;2022-12-28T13:26:59;3.50;;;2.60;;
10596;SDS011;5346;48.766;8.674;2022-12-28T13:29:31;4.90;;;2.77;;
10596;SDS011;5346;48.766;8.674;2022-12-28T13:32:31;3.33;;;2.47;;
10596;SDS011;5346;48.766;8.674;2022-12-28T13:35:17;5.40;;;2.30;;
10596;SDS011;5346;48.766;8.674;2022-12-28T13:38:03;2.40;;;1.90;;
10596;SDS011;5346;48.766;8.674;2022-12-28T13:40:48;4.40;;;2.00;;
10596;SDS011;5346;48.766;8.674;2022-12-28T13:46:18;5.13;;;2.20;;
10596;SDS011;5346;48.766;8.674;2022-12-28T13:48:53;3.83;;;2.03;;
10596;SDS011;5346;48.766;8.674;2022-12-28T13:51:23;3.13;;;2.20;;
10596;SDS011;5346;48.766;8.674;2022-12-28T13:53:54;3.53;;;2.77;;
10596;SDS011;5346;48.766;8.674;2022-12-28T13:56:31;4.17;;;2.50;;
10596;SDS011;5346;48.766;8.674;2022-12-28T13:59:02;4.90;;;3.10;;
10596;SDS011;5346;48.766;8.674;2022-12-28T14:01:42;5.60;;;3.13;;
10596;SDS011;5346;48.766;8.674;2022-12-28T14:04:13;6.03;;;3.70;;
10596;SDS011;5346;48.766;8.674;2022-12-28T14:07:16;3.87;;;2.93;;
10596;SDS011;5346;48.766;8.674;2022-12-28T14:09:44;6.43;;;3.00;;
10596;SDS011;5346;48.766;8.674;2022-12-28T14:12:21;3.67;;;2.77;;
10596;SDS011;5346;48.766;8.674;2022-12-28T14:14:49;5.20;;;3.10;;
10596;SDS011;5346;48.766;8.674;2022-12-28T14:17:17;3.13;;;2.70;;
10596;SDS011;5346;48.766;8.674;2022-12-28T14:19:52;4.63;;;2.90;;
10596;SDS011;5346;48.766;8.674;2022-12-28T14:22:27;4.83;;;3.23;;
10596;SDS011;5346;48.766;8.674;2022-12-28T14:25:14;8.37;;;2.90;;
10596;SDS011;5346;48.766;8.674;2022-12-28T14:27:45;5.07;;;3.63;;
10596;SDS011;5346;48.766;8.674;2022-12-28T14:30:28;6.43;;;3.40;;
10596;SDS011;5346;48.766;8.674;2022-12-28T14:33:21;4.23;;;2.97;;
10596;SDS011;5346;48.766;8.674;2022-12-28T14:35:58;4.77;;;3.30;;
10596;SDS011;5346;48.766;8.674;2022-12-28T14:38:31;7.13;;;3.63;;
10596;SDS011;5346;48.766;8.674;2022-12-28T14:41:31;7.57;;;3.23;;
10596;SDS011;5346;48.766;8.674;2022-12-28T14:44:01;5.87;;;3.40;;
10596;SDS011;5346;48.766;8.674;2022-12-28T14:46:45;4.67;;;2.87;;
10596;SDS011;5346;48.766;8.674;2022-12-28T14:59:56;4.40;;;2.80;;
10596;SDS011;5346;48.766;8.674;2022-12-28T15:02:38;7.83;;;2.63;;
10596;SDS011;5346;48.766;8.674;2022-12-28T15:08:06;3.97;;;3.00;;
10596;SDS011;5346;48.766;8.674;2022-12-28T15:10:38;4.10;;;2.77;;
10596;SDS011;5346;48.766;8.674;2022-12-28T15:13:15;4.33;;;3.10;;
10596;SDS011;5346;48.766;8.674;2022-12-28T15:15:45;4.53;;;2.87;;
10596;SDS011;5346;48.766;8.674;2022-12-28T15:18:32;5.77;;;3.17;;
10596;SDS011;5346;48.766;8.674;2022-12-28T15:21:22;6.93;;;3.80;;
10596;SDS011;5346;48.766;8.674;2022-12-28T15:23:57;5.77;;;3.97;;
10596;SDS011;5346;48.766;8.674;2022-12-28T15:26:24;6.97;;;4.33;;
10596;SDS011;5346;48.766;8.674;2022-12-28T15:28:53;7.27;;;4.60;;
10596;SDS011;5346;48.766;8.674;2022-12-28T15:31:26;5.07;;;4.00;;
10596;SDS011;5346;48.766;8.674;2022-12-28T15:33:54;5.80;;;4.10;;
10596;SDS011;5346;48.766;8.674;2022-12-28T15:36:22;4.90;;;3.77;;
10596;SDS011;5346;48.766;8.674;2022-12-28T15:38:57;12.23;;;5.30;;
10596;SDS011;5346;48.766;8.674;2022-12-28T15:41:31;6.67;;;4.70;;
10596;SDS011;5346;48.766;8.674;2022-12-28T15:44:20;6.80;;;4.50;;
10596;SDS011;5346;48.766;8.674;2022-12-28T15:46:47;9.13;;;5.33;;
10596;SDS011;5346;48.766;8.674;2022-12-28T15:49:15;7.93;;;5.40;;
10596;SDS011;5346;48.766;8.674;2022-12-28T15:51:49;7.27;;;5.37;;
10596;SDS011;5346;48.766;8.674;2022-12-28T15:54:17;7.60;;;4.77;;
10596;SDS011;5346;48.766;8.674;2022-12-28T15:56:50;8.77;;;5.23;;
10596;SDS011;5346;48.766;8.674;2022-12-28T15:59:25;7.40;;;4.97;;
10596;SDS011;5346;48.766;8.674;2022-12-28T16:01:52;9.90;;;5.63;;
10596;SDS011;5346;48.766;8.674;2022-12-28T16:04:20;8.13;;;5.67;;
10596;SDS011;5346;48.766;8.674;2022-12-28T16:06:54;6.17;;;4.43;;
10596;SDS011;5346;48.766;8.674;2022-12-28T16:09:22;8.07;;;4.70;;
10596;SDS011;5346;48.766;8.674;2022-12-28T16:11:49;8.10;;;4.67;;
10596;SDS011;5346;48.766;8.674;2022-12-28T16:14:23;8.43;;;5.03;;
10596;SDS011;5346;48.766;8.674;2022-12-28T16:16:51;6.23;;;4.60;;
10596;SDS011;5346;48.766;8.674;2022-12-28T16:19:19;14.03;;;4.63;;
10596;SDS011;5346;48.766;8.674;2022-12-28T16:21:52;10.00;;;4.03;;
10596;SDS011;5346;48.766;8.674;2022-12-28T16:24:20;5.80;;;4.17;;
10596;SDS011;5346;48.766;8.674;2022-12-28T16:26:49;7.73;;;4.33;;
10596;SDS011;5346;48.766;8.674;2022-12-28T16:29:28;7.93;;;4.50;;
10596;SDS011;5346;48.766;8.674;2022-12-28T16:31:57;7.23;;;4.50;;
10596;SDS011;5346;48.766;8.674;2022-12-28T16:34:26;8.97;;;4.83;;
10596;SDS011;5346;48.766;8.674;2022-12-28T16:37:00;6.47;;;4.37;;
10596;SDS011;5346;48.766;8.674;2022-12-28T16:39:34;10.27;;;5.00;;
10596;SDS011;5346;48.766;8.674;2022-12-28T16:42:10;8.23;;;4.50;;
10596;SDS011;5346;48.766;8.674;2022-12-28T16:44:37;7.30;;;5.00;;
10596;SDS011;5346;48.766;8.674;2022-12-28T16:47:05;8.20;;;5.17;;
10596;SDS011;5346;48.766;8.674;2022-12-28T16:49:39;7.17;;;4.80;;
10596;SDS011;5346;48.766;8.674;2022-12-28T16:52:08;7.70;;;4.67;;
10596;SDS011;5346;48.766;8.674;2022-12-28T16:54:35;6.47;;;4.33;;
10596;SDS011;5346;48.766;8.674;2022-12-28T16:57:09;6.73;;;4.57;;
10596;SDS011;5346;48.766;8.674;2022-12-28T16:59:37;6.57;;;4.00;;
10596;SDS011;5346;48.766;8.674;2022-12-28T17:02:04;6.63;;;3.93;;
10596;SDS011;5346;48.766;8.674;2022-12-28T17:04:40;6.57;;;4.63;;
10596;SDS011;5346;48.766;8.674;2022-12-28T17:07:09;6.17;;;4.90;;
10596;SDS011;5346;48.766;8.674;2022-12-28T17:09:36;7.50;;;4.70;;
10596;SDS011;5346;48.766;8.674;2022-12-28T17:12:15;9.43;;;4.70;;
10596;SDS011;5346;48.766;8.674;2022-12-28T17:14:45;7.03;;;4.53;;
10596;SDS011;5346;48.766;8.674;2022-12-28T17:17:30;5.37;;;3.50;;
10596;SDS011;5346;48.766;8.674;2022-12-28T17:19:57;7.67;;;4.37;;
10596;SDS011;5346;48.766;8.674;2022-12-28T17:22:34;6.43;;;3.97;;
10596;SDS011;5346;48.766;8.674;2022-12-28T17:25:01;7.13;;;3.97;;